sensor_id;sensor_type;location;lat;lon;timestamp;P1;durP1;ratioP1;P2;durP2;ratioP2
59476;SDS011;73078;49.762;6.594;2024-01-30T00:00:28;11.20;;;7.88;;
59476;SDS011;73078;49.762;6.594;2024-01-30T00:02:54;14.77;;;9.13;;
59476;SDS011;73078;49.762;6.594;2024-01-30T00:05:20;13.30;;;8.07;;
59476;SDS011;73078;49.762;6.594;2024-01-30T00:07:46;13.68;;;7.78;;
59476;SDS011;73078;49.762;6.594;2024-01-30T00:10:12;12.43;;;8.63;;
59476;SDS011;73078;49.762;6.594;2024-01-30T00:12:38;13.30;;;9.02;;
59476;SDS011;73078;49.762;6.594;2024-01-30T00:15:04;10.70;;;7.95;;
59476;SDS011;73078;49.762;6.594;2024-01-30T00:17:33;11.30;;;8.57;;
59476;SDS011;73078;49.762;6.594;2024-01-30T00:19:59;13.95;;;9.80;;
59476;SDS011;73078;49.762;6.594;2024-01-30T00:22:25;15.30;;;9.02;;
59476;SDS011;73078;49.762;6.594;2024-01-30T00:24:51;13.90;;;8.50;;
59476;SDS011;73078;49.762;6.594;2024-01-30T00:27:17;12.85;;;8.75;;
59476;SDS011;73078;49.762;6.594;2024-01-30T00:29:43;13.27;;;9.18;;
59476;SDS011;73078;49.762;6.594;2024-01-30T00:32:09;15.07;;;8.77;;
59476;SDS011;73078;49.762;6.594;2024-01-30T00:34:35;15.63;;;9.07;;
59476;SDS011;73078;49.762;6.594;2024-01-30T00:37:00;13.13;;;9.18;;
59476;SDS011;73078;49.762;6.594;2024-01-30T00:39:26;15.02;;;8.77;;
59476;SDS011;73078;49.762;6.594;2024-01-30T00:41:53;14.73;;;9.07;;
59476;SDS011;73078;49.762;6.594;2024-01-30T00:44:19;13.57;;;9.07;;
59476;SDS011;73078;49.762;6.594;2024-01-30T00:46:45;17.60;;;9.88;;
59476;SDS011;73078;49.762;6.594;2024-01-30T00:49:11;13.82;;;8.95;;
59476;SDS011;73078;49.762;6.594;2024-01-30T00:51:37;13.68;;;8.80;;
59476;SDS011;73078;49.762;6.594;2024-01-30T00:54:03;17.05;;;10.35;;
59476;SDS011;73078;49.762;6.594;2024-01-30T00:56:31;17.08;;;9.55;;
59476;SDS011;73078;49.762;6.594;2024-01-30T00:58:57;15.93;;;10.10;;
59476;SDS011;73078;49.762;6.594;2024-01-30T01:01:23;15.63;;;9.18;;
59476;SDS011;73078;49.762;6.594;2024-01-30T01:03:49;14.90;;;9.75;;
59476;SDS011;73078;49.762;6.594;2024-01-30T01:06:15;17.33;;;10.35;;
59476;SDS011;73078;49.762;6.594;2024-01-30T01:08:41;15.05;;;9.80;;
59476;SDS011;73078;49.762;6.594;2024-01-30T01:11:07;16.98;;;10.05;;
59476;SDS011;73078;49.762;6.594;2024-01-30T01:13:33;15.85;;;10.07;;
59476;SDS011;73078;49.762;6.594;2024-01-30T01:15:59;15.60;;;10.10;;
59476;SDS011;73078;49.762;6.594;2024-01-30T01:18:25;16.42;;;9.77;;
59476;SDS011;73078;49.762;6.594;2024-01-30T01:20:52;16.15;;;10.32;;
59476;SDS011;73078;49.762;6.594;2024-01-30T01:23:18;17.95;;;9.75;;
59476;SDS011;73078;49.762;6.594;2024-01-30T01:25:44;18.55;;;10.15;;
59476;SDS011;73078;49.762;6.594;2024-01-30T01:28:10;16.17;;;9.82;;
59476;SDS011;73078;49.762;6.594;2024-01-30T01:30:36;14.93;;;9.63;;
59476;SDS011;73078;49.762;6.594;2024-01-30T01:33:02;15.18;;;9.75;;
59476;SDS011;73078;49.762;6.594;2024-01-30T01:35:28;14.43;;;9.88;;
59476;SDS011;73078;49.762;6.594;2024-01-30T01:37:54;16.17;;;10.07;;
59476;SDS011;73078;49.762;6.594;2024-01-30T01:40:21;15.73;;;10.60;;
59476;SDS011;73078;49.762;6.594;2024-01-30T01:42:47;15.75;;;9.77;;
59476;SDS011;73078;49.762;6.594;2024-01-30T01:45:13;18.77;;;10.40;;
59476;SDS011;73078;49.762;6.594;2024-01-30T01:47:39;13.73;;;9.43;;
59476;SDS011;73078;49.762;6.594;2024-01-30T01:50:05;17.15;;;10.27;;
59476;SDS011;73078;49.762;6.594;2024-01-30T01:52:31;15.63;;;10.45;;
59476;SDS011;73078;49.762;6.594;2024-01-30T01:54:58;17.83;;;10.05;;
59476;SDS011;73078;49.762;6.594;2024-01-30T01:57:24;17.10;;;10.40;;
59476;SDS011;73078;49.762;6.594;2024-01-30T01:59:50;18.70;;;10.52;;
59476;SDS011;73078;49.762;6.594;2024-01-30T02:02:17;17.10;;;10.93;;
59476;SDS011;73078;49.762;6.594;2024-01-30T02:04:43;16.10;;;10.60;;
59476;SDS011;73078;49.762;6.594;2024-01-30T02:07:09;18.50;;;11.10;;
59476;SDS011;73078;49.762;6.594;2024-01-30T02:09:35;20.48;;;11.18;;
59476;SDS011;73078;49.762;6.594;2024-01-30T02:12:01;16.05;;;10.32;;
59476;SDS011;73078;49.762;6.594;2024-01-30T02:14:27;18.13;;;10.60;;
59476;SDS011;73078;49.762;6.594;2024-01-30T02:16:53;18.23;;;10.60;;
59476;SDS011;73078;49.762;6.594;2024-01-30T02:19:19;17.42;;;11.02;;
59476;SDS011;73078;49.762;6.594;2024-01-30T02:21:45;18.88;;;11.93;;
59476;SDS011;73078;49.762;6.594;2024-01-30T02:24:11;22.95;;;11.57;;
59476;SDS011;73078;49.762;6.594;2024-01-30T02:26:37;15.68;;;9.98;;
59476;SDS011;73078;49.762;6.594;2024-01-30T02:29:03;21.52;;;11.70;;
59476;SDS011;73078;49.762;6.594;2024-01-30T02:31:29;17.20;;;10.63;;
59476;SDS011;73078;49.762;6.594;2024-01-30T02:33:55;18.50;;;10.75;;
59476;SDS011;73078;49.762;6.594;2024-01-30T02:36:21;17.42;;;10.77;;
59476;SDS011;73078;49.762;6.594;2024-01-30T02:38:47;17.95;;;11.20;;
59476;SDS011;73078;49.762;6.594;2024-01-30T02:41:13;17.63;;;10.32;;
59476;SDS011;73078;49.762;6.594;2024-01-30T02:43:39;19.35;;;11.05;;
59476;SDS011;73078;49.762;6.594;2024-01-30T02:46:05;19.38;;;10.95;;
59476;SDS011;73078;49.762;6.594;2024-01-30T02:48:31;18.58;;;11.07;;
59476;SDS011;73078;49.762;6.594;2024-01-30T02:50:57;19.80;;;12.35;;
59476;SDS011;73078;49.762;6.594;2024-01-30T02:53:23;19.70;;;11.35;;
59476;SDS011;73078;49.762;6.594;2024-01-30T02:55:49;18.05;;;11.18;;
59476;SDS011;73078;49.762;6.594;2024-01-30T02:58:15;14.60;;;10.23;;
59476;SDS011;73078;49.762;6.594;2024-01-30T03:00:41;17.15;;;11.45;;
59476;SDS011;73078;49.762;6.594;2024-01-30T03:03:07;18.38;;;10.65;;
59476;SDS011;73078;49.762;6.594;2024-01-30T03:05:33;15.82;;;10.25;;
59476;SDS011;73078;49.762;6.594;2024-01-30T03:07:59;16.58;;;10.65;;
59476;SDS011;73078;49.762;6.594;2024-01-30T03:10:25;18.15;;;10.30;;
59476;SDS011;73078;49.762;6.594;2024-01-30T03:12:51;14.75;;;10.88;;
59476;SDS011;73078;49.762;6.594;2024-01-30T03:15:17;15.15;;;9.73;;
59476;SDS011;73078;49.762;6.594;2024-01-30T03:17:43;18.58;;;9.82;;
59476;SDS011;73078;49.762;6.594;2024-01-30T03:20:09;15.50;;;9.93;;
59476;SDS011;73078;49.762;6.594;2024-01-30T03:22:35;16.75;;;9.85;;
59476;SDS011;73078;49.762;6.594;2024-01-30T03:25:01;16.98;;;10.07;;
59476;SDS011;73078;49.762;6.594;2024-01-30T03:27:27;17.80;;;10.15;;
59476;SDS011;73078;49.762;6.594;2024-01-30T03:29:53;18.48;;;10.60;;
59476;SDS011;73078;49.762;6.594;2024-01-30T03:32:19;18.30;;;10.65;;
59476;SDS011;73078;49.762;6.594;2024-01-30T03:34:45;15.20;;;9.25;;
59476;SDS011;73078;49.762;6.594;2024-01-30T03:37:11;14.80;;;10.35;;
59476;SDS011;73078;49.762;6.594;2024-01-30T03:39:37;15.13;;;9.40;;
59476;SDS011;73078;49.762;6.594;2024-01-30T03:42:03;13.02;;;9.07;;
59476;SDS011;73078;49.762;6.594;2024-01-30T03:44:29;15.57;;;9.43;;
59476;SDS011;73078;49.762;6.594;2024-01-30T03:46:55;17.25;;;9.32;;
59476;SDS011;73078;49.762;6.594;2024-01-30T03:49:21;14.50;;;9.07;;
59476;SDS011;73078;49.762;6.594;2024-01-30T03:51:47;16.75;;;9.57;;
59476;SDS011;73078;49.762;6.594;2024-01-30T03:54:13;16.30;;;9.93;;
59476;SDS011;73078;49.762;6.594;2024-01-30T03:56:39;15.13;;;9.52;;
59476;SDS011;73078;49.762;6.594;2024-01-30T03:59:05;16.45;;;9.68;;
59476;SDS011;73078;49.762;6.594;2024-01-30T04:01:31;14.70;;;9.80;;
59476;SDS011;73078;49.762;6.594;2024-01-30T04:03:58;17.40;;;10.65;;
59476;SDS011;73078;49.762;6.594;2024-01-30T04:06:24;14.35;;;8.98;;
59476;SDS011;73078;49.762;6.594;2024-01-30T04:08:50;14.82;;;8.98;;
59476;SDS011;73078;49.762;6.594;2024-01-30T04:11:18;13.60;;;9.50;;
59476;SDS011;73078;49.762;6.594;2024-01-30T04:13:44;14.93;;;9.38;;
59476;SDS011;73078;49.762;6.594;2024-01-30T04:16:22;18.40;;;10.38;;
59476;SDS011;73078;49.762;6.594;2024-01-30T04:18:48;13.75;;;9.02;;
59476;SDS011;73078;49.762;6.594;2024-01-30T04:21:14;13.00;;;8.50;;
59476;SDS011;73078;49.762;6.594;2024-01-30T04:23:41;16.48;;;9.13;;
59476;SDS011;73078;49.762;6.594;2024-01-30T04:26:07;12.45;;;8.45;;
59476;SDS011;73078;49.762;6.594;2024-01-30T04:28:33;15.07;;;9.30;;
59476;SDS011;73078;49.762;6.594;2024-01-30T04:30:59;15.57;;;9.75;;
59476;SDS011;73078;49.762;6.594;2024-01-30T04:33:25;17.55;;;9.15;;
59476;SDS011;73078;49.762;6.594;2024-01-30T04:35:51;14.63;;;9.35;;
59476;SDS011;73078;49.762;6.594;2024-01-30T04:38:17;14.70;;;9.77;;
59476;SDS011;73078;49.762;6.594;2024-01-30T04:40:43;14.15;;;9.13;;
59476;SDS011;73078;49.762;6.594;2024-01-30T04:43:09;18.52;;;9.60;;
59476;SDS011;73078;49.762;6.594;2024-01-30T04:45:35;17.45;;;9.85;;
59476;SDS011;73078;49.762;6.594;2024-01-30T04:48:01;17.02;;;10.45;;
59476;SDS011;73078;49.762;6.594;2024-01-30T04:50:27;19.38;;;10.50;;
59476;SDS011;73078;49.762;6.594;2024-01-30T04:52:53;14.73;;;10.13;;
59476;SDS011;73078;49.762;6.594;2024-01-30T04:55:19;19.58;;;10.68;;
59476;SDS011;73078;49.762;6.594;2024-01-30T04:57:45;19.27;;;11.07;;
59476;SDS011;73078;49.762;6.594;2024-01-30T05:00:11;14.35;;;9.93;;
59476;SDS011;73078;49.762;6.594;2024-01-30T05:02:37;15.65;;;10.35;;
59476;SDS011;73078;49.762;6.594;2024-01-30T05:05:03;18.13;;;10.65;;
59476;SDS011;73078;49.762;6.594;2024-01-30T05:07:29;16.75;;;10.25;;
59476;SDS011;73078;49.762;6.594;2024-01-30T05:09:56;15.95;;;10.35;;
59476;SDS011;73078;49.762;6.594;2024-01-30T05:12:22;14.68;;;9.82;;
59476;SDS011;73078;49.762;6.594;2024-01-30T05:14:48;15.40;;;10.40;;
59476;SDS011;73078;49.762;6.594;2024-01-30T05:17:14;19.30;;;10.02;;
59476;SDS011;73078;49.762;6.594;2024-01-30T05:19:42;15.70;;;10.98;;
59476;SDS011;73078;49.762;6.594;2024-01-30T05:22:09;15.23;;;9.98;;
59476;SDS011;73078;49.762;6.594;2024-01-30T05:24:35;16.35;;;10.70;;
59476;SDS011;73078;49.762;6.594;2024-01-30T05:27:01;16.25;;;10.70;;
59476;SDS011;73078;49.762;6.594;2024-01-30T05:29:27;14.10;;;10.20;;
59476;SDS011;73078;49.762;6.594;2024-01-30T05:31:53;16.80;;;10.60;;
59476;SDS011;73078;49.762;6.594;2024-01-30T05:34:19;17.80;;;11.07;;
59476;SDS011;73078;49.762;6.594;2024-01-30T05:36:45;17.98;;;10.70;;
59476;SDS011;73078;49.762;6.594;2024-01-30T05:39:11;17.95;;;11.45;;
59476;SDS011;73078;49.762;6.594;2024-01-30T05:41:38;17.55;;;10.13;;
59476;SDS011;73078;49.762;6.594;2024-01-30T05:44:04;16.80;;;10.18;;
59476;SDS011;73078;49.762;6.594;2024-01-30T05:46:30;17.77;;;10.85;;
59476;SDS011;73078;49.762;6.594;2024-01-30T05:48:56;18.35;;;10.38;;
59476;SDS011;73078;49.762;6.594;2024-01-30T05:51:22;17.45;;;11.02;;
59476;SDS011;73078;49.762;6.594;2024-01-30T05:53:48;16.35;;;10.05;;
59476;SDS011;73078;49.762;6.594;2024-01-30T05:56:14;15.18;;;10.00;;
59476;SDS011;73078;49.762;6.594;2024-01-30T05:58:40;18.00;;;10.82;;
59476;SDS011;73078;49.762;6.594;2024-01-30T06:01:08;16.42;;;10.40;;
59476;SDS011;73078;49.762;6.594;2024-01-30T06:03:34;16.98;;;10.60;;
59476;SDS011;73078;49.762;6.594;2024-01-30T06:06:00;16.17;;;9.80;;
59476;SDS011;73078;49.762;6.594;2024-01-30T06:08:26;15.52;;;9.82;;
59476;SDS011;73078;49.762;6.594;2024-01-30T06:10:52;16.55;;;10.07;;
59476;SDS011;73078;49.762;6.594;2024-01-30T06:13:18;14.32;;;9.38;;
59476;SDS011;73078;49.762;6.594;2024-01-30T06:15:44;14.95;;;9.88;;
59476;SDS011;73078;49.762;6.594;2024-01-30T06:18:10;15.75;;;10.02;;
59476;SDS011;73078;49.762;6.594;2024-01-30T06:20:36;15.18;;;9.38;;
59476;SDS011;73078;49.762;6.594;2024-01-30T06:23:02;15.50;;;10.45;;
59476;SDS011;73078;49.762;6.594;2024-01-30T06:25:28;15.27;;;10.73;;
59476;SDS011;73078;49.762;6.594;2024-01-30T06:27:54;18.75;;;10.60;;
59476;SDS011;73078;49.762;6.594;2024-01-30T06:30:20;14.75;;;9.65;;
59476;SDS011;73078;49.762;6.594;2024-01-30T06:32:46;16.55;;;9.52;;
59476;SDS011;73078;49.762;6.594;2024-01-30T06:35:11;15.27;;;9.70;;
59476;SDS011;73078;49.762;6.594;2024-01-30T06:37:37;17.92;;;10.45;;
59476;SDS011;73078;49.762;6.594;2024-01-30T06:40:04;14.00;;;9.98;;
59476;SDS011;73078;49.762;6.594;2024-01-30T06:42:30;15.55;;;9.85;;
59476;SDS011;73078;49.762;6.594;2024-01-30T06:44:56;17.00;;;10.05;;
59476;SDS011;73078;49.762;6.594;2024-01-30T06:47:22;15.68;;;9.88;;
59476;SDS011;73078;49.762;6.594;2024-01-30T06:49:48;15.30;;;10.05;;
59476;SDS011;73078;49.762;6.594;2024-01-30T06:52:14;17.63;;;10.13;;
59476;SDS011;73078;49.762;6.594;2024-01-30T06:54:40;17.30;;;9.93;;
59476;SDS011;73078;49.762;6.594;2024-01-30T06:57:06;16.45;;;10.30;;
59476;SDS011;73078;49.762;6.594;2024-01-30T06:59:36;15.18;;;10.65;;
59476;SDS011;73078;49.762;6.594;2024-01-30T07:02:06;18.73;;;9.50;;
59476;SDS011;73078;49.762;6.594;2024-01-30T07:04:32;18.98;;;10.32;;
59476;SDS011;73078;49.762;6.594;2024-01-30T07:06:58;16.63;;;10.35;;
59476;SDS011;73078;49.762;6.594;2024-01-30T07:09:24;15.88;;;10.68;;
59476;SDS011;73078;49.762;6.594;2024-01-30T07:11:50;18.85;;;10.13;;
59476;SDS011;73078;49.762;6.594;2024-01-30T07:14:16;17.98;;;10.75;;
59476;SDS011;73078;49.762;6.594;2024-01-30T07:16:42;17.40;;;10.55;;
59476;SDS011;73078;49.762;6.594;2024-01-30T07:19:08;16.80;;;10.20;;
59476;SDS011;73078;49.762;6.594;2024-01-30T07:21:34;17.23;;;10.02;;
59476;SDS011;73078;49.762;6.594;2024-01-30T07:24:00;14.73;;;9.30;;
59476;SDS011;73078;49.762;6.594;2024-01-30T07:26:26;17.30;;;10.23;;
59476;SDS011;73078;49.762;6.594;2024-01-30T07:28:52;13.00;;;9.85;;
59476;SDS011;73078;49.762;6.594;2024-01-30T07:31:18;14.27;;;9.73;;
59476;SDS011;73078;49.762;6.594;2024-01-30T07:33:45;17.70;;;11.18;;
59476;SDS011;73078;49.762;6.594;2024-01-30T07:36:11;17.15;;;10.23;;
59476;SDS011;73078;49.762;6.594;2024-01-30T07:38:37;16.55;;;9.60;;
59476;SDS011;73078;49.762;6.594;2024-01-30T07:41:03;18.50;;;10.30;;
59476;SDS011;73078;49.762;6.594;2024-01-30T07:43:29;15.73;;;9.98;;
59476;SDS011;73078;49.762;6.594;2024-01-30T07:45:55;16.00;;;10.23;;
59476;SDS011;73078;49.762;6.594;2024-01-30T07:48:21;13.80;;;10.02;;
59476;SDS011;73078;49.762;6.594;2024-01-30T07:50:47;17.33;;;10.35;;
59476;SDS011;73078;49.762;6.594;2024-01-30T07:53:13;18.88;;;10.40;;
59476;SDS011;73078;49.762;6.594;2024-01-30T07:55:39;13.73;;;9.23;;
59476;SDS011;73078;49.762;6.594;2024-01-30T07:58:06;19.05;;;10.75;;
59476;SDS011;73078;49.762;6.594;2024-01-30T08:00:32;14.40;;;10.15;;
59476;SDS011;73078;49.762;6.594;2024-01-30T08:02:58;16.35;;;10.35;;
59476;SDS011;73078;49.762;6.594;2024-01-30T08:05:24;14.20;;;9.60;;
59476;SDS011;73078;49.762;6.594;2024-01-30T08:07:50;17.63;;;10.25;;
59476;SDS011;73078;49.762;6.594;2024-01-30T08:10:16;14.63;;;9.73;;
59476;SDS011;73078;49.762;6.594;2024-01-30T08:12:45;15.23;;;9.98;;
59476;SDS011;73078;49.762;6.594;2024-01-30T08:15:11;16.70;;;9.23;;
59476;SDS011;73078;49.762;6.594;2024-01-30T08:17:41;14.07;;;8.68;;
59476;SDS011;73078;49.762;6.594;2024-01-30T08:20:07;12.40;;;8.70;;
59476;SDS011;73078;49.762;6.594;2024-01-30T08:22:33;13.65;;;8.13;;
59476;SDS011;73078;49.762;6.594;2024-01-30T08:24:59;11.68;;;8.02;;
59476;SDS011;73078;49.762;6.594;2024-01-30T08:27:25;12.65;;;8.70;;
59476;SDS011;73078;49.762;6.594;2024-01-30T08:29:51;13.63;;;8.95;;
59476;SDS011;73078;49.762;6.594;2024-01-30T08:32:17;14.15;;;8.70;;
59476;SDS011;73078;49.762;6.594;2024-01-30T08:34:43;12.73;;;8.52;;
59476;SDS011;73078;49.762;6.594;2024-01-30T08:37:09;12.77;;;8.57;;
59476;SDS011;73078;49.762;6.594;2024-01-30T08:39:35;13.48;;;8.32;;
59476;SDS011;73078;49.762;6.594;2024-01-30T08:42:01;13.98;;;8.88;;
59476;SDS011;73078;49.762;6.594;2024-01-30T08:44:27;15.15;;;8.93;;
59476;SDS011;73078;49.762;6.594;2024-01-30T08:46:53;13.80;;;9.40;;
59476;SDS011;73078;49.762;6.594;2024-01-30T08:49:19;13.95;;;9.85;;
59476;SDS011;73078;49.762;6.594;2024-01-30T08:51:46;15.93;;;9.57;;
59476;SDS011;73078;49.762;6.594;2024-01-30T08:54:12;15.63;;;10.45;;
59476;SDS011;73078;49.762;6.594;2024-01-30T08:56:38;19.25;;;10.68;;
59476;SDS011;73078;49.762;6.594;2024-01-30T08:59:04;14.45;;;9.52;;
59476;SDS011;73078;49.762;6.594;2024-01-30T09:01:30;18.23;;;9.75;;
59476;SDS011;73078;49.762;6.594;2024-01-30T09:03:56;15.25;;;9.85;;
59476;SDS011;73078;49.762;6.594;2024-01-30T09:06:22;14.23;;;9.10;;
59476;SDS011;73078;49.762;6.594;2024-01-30T09:08:49;15.02;;;9.77;;
59476;SDS011;73078;49.762;6.594;2024-01-30T09:11:15;14.65;;;10.02;;
59476;SDS011;73078;49.762;6.594;2024-01-30T09:13:41;14.73;;;9.52;;
59476;SDS011;73078;49.762;6.594;2024-01-30T09:16:08;15.23;;;9.55;;
59476;SDS011;73078;49.762;6.594;2024-01-30T09:18:34;14.68;;;9.95;;
59476;SDS011;73078;49.762;6.594;2024-01-30T09:21:00;16.52;;;9.95;;
59476;SDS011;73078;49.762;6.594;2024-01-30T09:23:29;15.10;;;9.25;;
59476;SDS011;73078;49.762;6.594;2024-01-30T09:25:55;14.93;;;9.57;;
59476;SDS011;73078;49.762;6.594;2024-01-30T09:28:21;17.95;;;10.18;;
59476;SDS011;73078;49.762;6.594;2024-01-30T09:30:47;14.10;;;9.40;;
59476;SDS011;73078;49.762;6.594;2024-01-30T09:33:13;13.50;;;9.30;;
59476;SDS011;73078;49.762;6.594;2024-01-30T09:35:39;15.00;;;9.45;;
59476;SDS011;73078;49.762;6.594;2024-01-30T09:38:05;14.70;;;8.77;;
59476;SDS011;73078;49.762;6.594;2024-01-30T09:40:31;13.15;;;8.32;;
59476;SDS011;73078;49.762;6.594;2024-01-30T09:42:57;12.10;;;6.72;;
59476;SDS011;73078;49.762;6.594;2024-01-30T09:45:27;12.55;;;8.32;;
59476;SDS011;73078;49.762;6.594;2024-01-30T09:47:53;15.82;;;8.75;;
59476;SDS011;73078;49.762;6.594;2024-01-30T09:50:19;14.48;;;8.55;;
59476;SDS011;73078;49.762;6.594;2024-01-30T09:52:46;13.10;;;8.85;;
59476;SDS011;73078;49.762;6.594;2024-01-30T09:55:12;18.27;;;10.30;;
59476;SDS011;73078;49.762;6.594;2024-01-30T09:57:38;15.55;;;9.30;;
59476;SDS011;73078;49.762;6.594;2024-01-30T10:00:05;16.50;;;10.80;;
59476;SDS011;73078;49.762;6.594;2024-01-30T10:02:34;15.48;;;10.43;;
59476;SDS011;73078;49.762;6.594;2024-01-30T10:05:00;14.98;;;9.75;;
59476;SDS011;73078;49.762;6.594;2024-01-30T10:07:26;15.38;;;9.70;;
59476;SDS011;73078;49.762;6.594;2024-01-30T10:09:55;15.48;;;9.43;;
59476;SDS011;73078;49.762;6.594;2024-01-30T10:12:21;13.32;;;9.15;;
59476;SDS011;73078;49.762;6.594;2024-01-30T10:14:47;13.65;;;9.20;;
59476;SDS011;73078;49.762;6.594;2024-01-30T10:17:13;13.30;;;9.57;;
59476;SDS011;73078;49.762;6.594;2024-01-30T10:19:39;16.83;;;10.32;;
59476;SDS011;73078;49.762;6.594;2024-01-30T10:22:06;15.15;;;9.52;;
59476;SDS011;73078;49.762;6.594;2024-01-30T10:24:33;14.32;;;10.00;;
59476;SDS011;73078;49.762;6.594;2024-01-30T10:26:59;13.43;;;9.75;;
59476;SDS011;73078;49.762;6.594;2024-01-30T10:29:25;15.77;;;9.98;;
59476;SDS011;73078;49.762;6.594;2024-01-30T10:32:01;16.00;;;9.80;;
59476;SDS011;73078;49.762;6.594;2024-01-30T10:34:27;15.02;;;10.15;;
59476;SDS011;73078;49.762;6.594;2024-01-30T10:37:09;18.33;;;9.95;;
59476;SDS011;73078;49.762;6.594;2024-01-30T10:39:41;16.98;;;9.73;;
59476;SDS011;73078;49.762;6.594;2024-01-30T10:42:10;15.75;;;9.68;;
59476;SDS011;73078;49.762;6.594;2024-01-30T10:47:03;17.58;;;10.75;;
59476;SDS011;73078;49.762;6.594;2024-01-30T10:49:33;16.55;;;11.05;;
59476;SDS011;73078;49.762;6.594;2024-01-30T10:51:59;13.65;;;10.02;;
59476;SDS011;73078;49.762;6.594;2024-01-30T10:54:25;16.05;;;10.55;;
59476;SDS011;73078;49.762;6.594;2024-01-30T10:56:52;15.15;;;10.68;;
59476;SDS011;73078;49.762;6.594;2024-01-30T10:59:18;15.05;;;10.63;;
59476;SDS011;73078;49.762;6.594;2024-01-30T11:01:44;14.55;;;9.85;;
59476;SDS011;73078;49.762;6.594;2024-01-30T11:04:11;15.10;;;10.23;;
59476;SDS011;73078;49.762;6.594;2024-01-30T11:06:41;14.68;;;8.90;;
59476;SDS011;73078;49.762;6.594;2024-01-30T11:14:22;12.18;;;8.13;;
59476;SDS011;73078;49.762;6.594;2024-01-30T11:16:49;14.68;;;8.55;;
59476;SDS011;73078;49.762;6.594;2024-01-30T11:19:15;11.10;;;8.15;;
59476;SDS011;73078;49.762;6.594;2024-01-30T11:21:49;13.68;;;8.38;;
59476;SDS011;73078;49.762;6.594;2024-01-30T11:24:18;12.15;;;7.93;;
59476;SDS011;73078;49.762;6.594;2024-01-30T11:26:45;13.27;;;8.15;;
59476;SDS011;73078;49.762;6.594;2024-01-30T11:29:13;12.00;;;8.25;;
59476;SDS011;73078;49.762;6.594;2024-01-30T11:31:40;11.15;;;8.10;;
59476;SDS011;73078;49.762;6.594;2024-01-30T11:34:06;11.32;;;8.57;;
59476;SDS011;73078;49.762;6.594;2024-01-30T11:36:32;15.52;;;8.45;;
59476;SDS011;73078;49.762;6.594;2024-01-30T11:39:02;12.50;;;8.32;;
59476;SDS011;73078;49.762;6.594;2024-01-30T11:41:28;12.43;;;8.70;;
59476;SDS011;73078;49.762;6.594;2024-01-30T11:43:54;10.25;;;7.30;;
59476;SDS011;73078;49.762;6.594;2024-01-30T11:46:20;13.00;;;8.63;;
59476;SDS011;73078;49.762;6.594;2024-01-30T11:48:46;12.90;;;7.95;;
59476;SDS011;73078;49.762;6.594;2024-01-30T11:51:13;13.10;;;8.43;;
59476;SDS011;73078;49.762;6.594;2024-01-30T11:53:39;12.40;;;7.75;;
59476;SDS011;73078;49.762;6.594;2024-01-30T11:56:08;11.98;;;8.35;;
59476;SDS011;73078;49.762;6.594;2024-01-30T11:58:34;13.60;;;8.07;;
59476;SDS011;73078;49.762;6.594;2024-01-30T12:01:00;10.43;;;7.63;;
59476;SDS011;73078;49.762;6.594;2024-01-30T12:03:26;10.77;;;7.93;;
59476;SDS011;73078;49.762;6.594;2024-01-30T12:05:56;13.50;;;8.70;;
59476;SDS011;73078;49.762;6.594;2024-01-30T12:08:23;11.75;;;7.43;;
59476;SDS011;73078;49.762;6.594;2024-01-30T12:10:58;12.20;;;7.78;;
59476;SDS011;73078;49.762;6.594;2024-01-30T12:13:28;14.35;;;9.15;;
59476;SDS011;73078;49.762;6.594;2024-01-30T12:15:54;13.40;;;9.55;;
59476;SDS011;73078;49.762;6.594;2024-01-30T12:18:20;14.73;;;9.25;;
59476;SDS011;73078;49.762;6.594;2024-01-30T12:20:56;14.35;;;9.82;;
59476;SDS011;73078;49.762;6.594;2024-01-30T12:23:23;15.48;;;10.25;;
59476;SDS011;73078;49.762;6.594;2024-01-30T12:25:50;14.40;;;9.85;;
59476;SDS011;73078;49.762;6.594;2024-01-30T12:28:16;14.32;;;9.38;;
59476;SDS011;73078;49.762;6.594;2024-01-30T12:30:42;15.35;;;9.93;;
59476;SDS011;73078;49.762;6.594;2024-01-30T12:33:08;14.30;;;10.23;;
59476;SDS011;73078;49.762;6.594;2024-01-30T12:35:35;16.55;;;10.13;;
59476;SDS011;73078;49.762;6.594;2024-01-30T12:38:01;18.25;;;10.57;;
59476;SDS011;73078;49.762;6.594;2024-01-30T12:40:27;13.52;;;10.05;;
59476;SDS011;73078;49.762;6.594;2024-01-30T12:42:54;13.50;;;9.57;;
59476;SDS011;73078;49.762;6.594;2024-01-30T12:45:20;15.30;;;10.32;;
59476;SDS011;73078;49.762;6.594;2024-01-30T12:47:47;16.10;;;10.48;;
59476;SDS011;73078;49.762;6.594;2024-01-30T12:50:13;15.75;;;9.90;;
59476;SDS011;73078;49.762;6.594;2024-01-30T12:52:41;15.32;;;10.48;;
59476;SDS011;73078;49.762;6.594;2024-01-30T12:55:07;16.52;;;10.82;;
59476;SDS011;73078;49.762;6.594;2024-01-30T12:57:33;15.38;;;9.93;;
59476;SDS011;73078;49.762;6.594;2024-01-30T12:59:59;15.05;;;10.10;;
59476;SDS011;73078;49.762;6.594;2024-01-30T13:02:25;13.63;;;9.82;;
59476;SDS011;73078;49.762;6.594;2024-01-30T13:04:55;13.77;;;9.77;;
59476;SDS011;73078;49.762;6.594;2024-01-30T13:07:21;16.80;;;10.68;;
59476;SDS011;73078;49.762;6.594;2024-01-30T13:09:47;16.92;;;10.10;;
59476;SDS011;73078;49.762;6.594;2024-01-30T13:12:13;15.20;;;8.80;;
59476;SDS011;73078;49.762;6.594;2024-01-30T13:14:39;15.50;;;10.75;;
59476;SDS011;73078;49.762;6.594;2024-01-30T13:17:04;15.30;;;10.02;;
59476;SDS011;73078;49.762;6.594;2024-01-30T13:19:30;12.48;;;9.57;;
59476;SDS011;73078;49.762;6.594;2024-01-30T13:21:56;13.98;;;9.13;;
59476;SDS011;73078;49.762;6.594;2024-01-30T13:24:22;13.85;;;9.20;;
59476;SDS011;73078;49.762;6.594;2024-01-30T13:26:48;13.70;;;9.48;;
59476;SDS011;73078;49.762;6.594;2024-01-30T13:29:14;14.48;;;8.98;;
59476;SDS011;73078;49.762;6.594;2024-01-30T13:31:40;14.00;;;8.85;;
59476;SDS011;73078;49.762;6.594;2024-01-30T13:34:06;12.15;;;8.70;;
59476;SDS011;73078;49.762;6.594;2024-01-30T13:36:33;12.85;;;8.23;;
59476;SDS011;73078;49.762;6.594;2024-01-30T13:38:59;11.63;;;8.10;;
59476;SDS011;73078;49.762;6.594;2024-01-30T13:41:25;11.75;;;8.18;;
59476;SDS011;73078;49.762;6.594;2024-01-30T13:43:51;12.63;;;8.75;;
59476;SDS011;73078;49.762;6.594;2024-01-30T13:46:17;14.00;;;8.65;;
59476;SDS011;73078;49.762;6.594;2024-01-30T13:48:42;15.50;;;8.55;;
59476;SDS011;73078;49.762;6.594;2024-01-30T13:51:08;13.10;;;8.57;;
59476;SDS011;73078;49.762;6.594;2024-01-30T13:53:36;13.30;;;7.88;;
59476;SDS011;73078;49.762;6.594;2024-01-30T13:56:02;13.48;;;8.95;;
59476;SDS011;73078;49.762;6.594;2024-01-30T13:58:28;12.30;;;8.57;;
59476;SDS011;73078;49.762;6.594;2024-01-30T14:00:54;15.68;;;8.55;;
59476;SDS011;73078;49.762;6.594;2024-01-30T14:03:20;12.70;;;8.85;;
59476;SDS011;73078;49.762;6.594;2024-01-30T14:05:46;11.93;;;8.20;;
59476;SDS011;73078;49.762;6.594;2024-01-30T14:08:12;14.65;;;8.65;;
59476;SDS011;73078;49.762;6.594;2024-01-30T14:10:38;12.07;;;8.25;;
59476;SDS011;73078;49.762;6.594;2024-01-30T14:13:03;14.02;;;8.55;;
59476;SDS011;73078;49.762;6.594;2024-01-30T14:15:29;11.88;;;7.50;;
59476;SDS011;73078;49.762;6.594;2024-01-30T14:17:55;11.13;;;8.00;;
59476;SDS011;73078;49.762;6.594;2024-01-30T14:20:21;11.80;;;8.65;;
59476;SDS011;73078;49.762;6.594;2024-01-30T14:22:47;15.20;;;8.73;;
59476;SDS011;73078;49.762;6.594;2024-01-30T14:25:13;14.38;;;8.82;;
59476;SDS011;73078;49.762;6.594;2024-01-30T14:27:40;13.38;;;8.18;;
59476;SDS011;73078;49.762;6.594;2024-01-30T14:30:08;12.80;;;8.10;;